This is the latest recevied weather packets stored in our database for station/object DL1GRJ-13. If no packets are shown the sender has not sent any weather packets the latest 10 day(s).
| Time | Temp. | Humidity | Pressure | Rain* | Wind** | Luminosity | Snow |
|---|---|---|---|---|---|---|---|
| 1777582842 | 6.11° C | 32% | 1025.4 hPa | - | - | - | - |
| 1777581042 | 7.22° C | 31% | 1025.4 hPa | - | - | - | - |
| 1777579242 | 7.78° C | 29% | 1025.4 hPa | - | - | - | - |
| 1777577442 | 8.89° C | 27% | 1025.1 hPa | - | - | - | - |
| 1777575641 | 10° C | 26% | 1024.8 hPa | - | - | - | - |
| 1777573841 | 11.11° C | 24% | 1024.5 hPa | - | - | - | - |
| 1777572041 | 15° C | 21% | 1024.3 hPa | - | - | - | - |
| 1777570241 | 17.22° C | 18% | 1023.9 hPa | - | - | - | - |
| 1777568441 | 17.22° C | 18% | 1023.8 hPa | - | - | - | - |
| 1777566641 | 17.78° C | 16% | 1023.7 hPa | - | - | - | - |
| 1777564841 | 18.89° C | 17% | 1023.6 hPa | - | - | - | - |
| 1777563040 | 19.44° C | 18% | 1023.7 hPa | - | - | - | - |
| 1777561240 | 19.44° C | 20% | 1023.8 hPa | - | - | - | - |
| 1777559440 | 18.33° C | 19% | 1023.7 hPa | - | - | - | - |
| 1777557640 | 18.33° C | 19% | 1023.7 hPa | - | - | - | - |
| 1777555840 | 18.33° C | 21% | 1023.7 hPa | - | - | - | - |
| 1777554039 | 17.78° C | 21% | 1023.7 hPa | - | - | - | - |
| 1777552239 | 19.44° C | 21% | 1023.7 hPa | - | - | - | - |
| 1777550438 | 17.22° C | 20% | 1023.9 hPa | - | - | - | - |
| 1777548638 | 18.33° C | 23% | 1023.7 hPa | - | - | - | - |
| 1777546838 | 16.11° C | 23% | 1024.1 hPa | - | - | - | - |
| 1777545038 | 15.56° C | 25% | 1024 hPa | - | - | - | - |
| 1777543238 | 12.78° C | 28% | 1024.1 hPa | - | - | - | - |
| 1777541438 | 11.67° C | 31% | 1024.1 hPa | - | - | - | - |
| 1777539638 | 10.56° C | 34% | 1024.3 hPa | - | - | - | - |
* Rain since midnight (hover to see other rain measurements)
** Current wind speed in m/s (hover to see current wind gust speed)